EVA272 RPLL-RCTP
Flight info
| Callsign | EVA272 |
|---|---|
| Flight time | 1h 32m |
| Altitude | 37000 |
| Route | ALPAS4V ALPAS M646 POTIB Q14 TNN TNN1A |
| Aircraft | B77W/H-SDE1E2E3FGHIJ2J3J4J5M1RWXY/LB1D1 |
Departure
| Time | 2026-05-04 22:47 |
|---|---|
| Airport | Ninoy Aquino International Airport (RPLL) |
Arrival
| Time | 2026-05-05 00:19 |
|---|---|
| Airport | Taiwan Taoyuan International Airport (RCTP) |
| Time | Latitude | Longitude | Altitude | Speed | Heading |
|---|---|---|---|---|---|
| 2026-05-04 22:27 | 14.50459 | 121.00584 | 66 ft | 0 kts | 11° |
| 2026-05-04 22:36 | 14.50458 | 121.00584 | 74 ft | 1 kts | 11° |
| 2026-05-04 22:37 | 14.50441 | 121.00581 | 67 ft | 3 kts | 7° |
| 2026-05-04 22:37 | 14.50421 | 121.00579 | 63 ft | 3 kts | 2° |
| 2026-05-04 22:37 | 14.50401 | 121.00579 | 63 ft | 3 kts | 355° |
| 2026-05-04 22:37 | 14.50381 | 121.00582 | 73 ft | 3 kts | 343° |
| 2026-05-04 22:38 | 14.50363 | 121.00589 | 67 ft | 3 kts | 318° |
| 2026-05-04 22:38 | 14.50354 | 121.00601 | 63 ft | 3 kts | 259° |
| 2026-05-04 22:38 | 14.50356 | 121.00608 | 63 ft | 1 kts | 240° |
| 2026-05-04 22:38 | 14.50357 | 121.00609 | 63 ft | 0 kts | 240° |
| 2026-05-04 22:42 | 14.50355 | 121.00606 | 63 ft | 3 kts | 240° |
| 2026-05-04 22:42 | 14.50335 | 121.00571 | 66 ft | 8 kts | 240° |
| 2026-05-04 22:42 | 14.50308 | 121.00521 | 67 ft | 9 kts | 240° |
| 2026-05-04 22:42 | 14.50274 | 121.00459 | 63 ft | 11 kts | 240° |
| 2026-05-04 22:43 | 14.50233 | 121.00386 | 68 ft | 12 kts | 240° |
| 2026-05-04 22:43 | 14.50206 | 121.00352 | 70 ft | 9 kts | 217° |
| 2026-05-04 22:43 | 14.50147 | 121.00339 | 64 ft | 8 kts | 191° |
| 2026-05-04 22:43 | 14.50102 | 121.00299 | 67 ft | 10 kts | 238° |
| 2026-05-04 22:44 | 14.50063 | 121.00232 | 65 ft | 12 kts | 240° |
| 2026-05-04 22:44 | 14.50023 | 121.00158 | 64 ft | 13 kts | 240° |
| 2026-05-04 22:44 | 14.49980 | 121.00082 | 66 ft | 12 kts | 240° |
| 2026-05-04 22:44 | 14.49943 | 121.00015 | 63 ft | 9 kts | 240° |
| 2026-05-04 22:45 | 14.49898 | 120.99973 | 67 ft | 9 kts | 194° |
| 2026-05-04 22:45 | 14.49808 | 121.00018 | 64 ft | 4 kts | 109° |
| 2026-05-04 22:45 | 14.49813 | 121.00049 | 68 ft | 5 kts | 72° |
| 2026-05-04 22:46 | 14.49830 | 121.00088 | 71 ft | 7 kts | 61° |
| 2026-05-04 22:46 | 14.49869 | 121.00159 | 65 ft | 28 kts | 60° |
| 2026-05-04 22:46 | 14.50124 | 121.00616 | 61 ft | 116 kts | 60° |
| 2026-05-04 22:46 | 14.50658 | 121.01567 | 92 ft | 185 kts | 59° |
| 2026-05-04 22:47 | 14.51326 | 121.02752 | 755 ft | 190 kts | 59° |
| 2026-05-04 22:47 | 14.51984 | 121.03932 | 1703 ft | 190 kts | 60° |
| 2026-05-04 22:47 | 14.52643 | 121.05142 | 2403 ft | 202 kts | 61° |
| 2026-05-04 22:47 | 14.53361 | 121.06452 | 2933 ft | 221 kts | 61° |
| 2026-05-04 22:48 | 14.54159 | 121.07895 | 3497 ft | 239 kts | 61° |
| 2026-05-04 22:48 | 14.55005 | 121.09417 | 4347 ft | 246 kts | 62° |
| 2026-05-04 22:48 | 14.55874 | 121.10974 | 5200 ft | 255 kts | 62° |
| 2026-05-04 22:48 | 14.56887 | 121.12488 | 6001 ft | 266 kts | 46° |
| 2026-05-04 22:49 | 14.58530 | 121.13411 | 6832 ft | 279 kts | 15° |
| 2026-05-04 22:49 | 14.60519 | 121.13496 | 7579 ft | 291 kts | 1° |
| 2026-05-04 22:49 | 14.62572 | 121.13445 | 8426 ft | 297 kts | 2° |
| 2026-05-04 22:49 | 14.64667 | 121.13458 | 9229 ft | 303 kts | 4° |
| 2026-05-04 22:50 | 14.66784 | 121.13477 | 10115 ft | 305 kts | 3° |
| 2026-05-04 22:50 | 14.68948 | 121.13495 | 10715 ft | 321 kts | 2° |
| 2026-05-04 22:50 | 14.71282 | 121.13255 | 10900 ft | 354 kts | 346° |
| 2026-05-04 22:50 | 14.73700 | 121.12388 | 11259 ft | 377 kts | 340° |
| 2026-05-04 22:51 | 14.76190 | 121.11406 | 11905 ft | 386 kts | 340° |
| 2026-05-04 22:51 | 14.78684 | 121.10453 | 12044 ft | 390 kts | 341° |
| 2026-05-04 22:51 | 14.81189 | 121.09337 | 12639 ft | 395 kts | 334° |
| 2026-05-04 22:51 | 14.83628 | 121.08026 | 13811 ft | 392 kts | 333° |
| 2026-05-04 22:52 | 14.86042 | 121.06710 | 14767 ft | 394 kts | 333° |
| 2026-05-04 22:52 | 14.88497 | 121.05372 | 15552 ft | 401 kts | 333° |
| 2026-05-04 22:52 | 14.90993 | 121.04019 | 16320 ft | 408 kts | 333° |
| 2026-05-04 22:52 | 14.93529 | 121.02651 | 17119 ft | 414 kts | 333° |
| 2026-05-04 22:53 | 14.96099 | 121.01270 | 17928 ft | 419 kts | 333° |
| 2026-05-04 22:53 | 14.98701 | 120.99875 | 18667 ft | 424 kts | 333° |
| 2026-05-04 22:53 | 15.01333 | 120.98466 | 19369 ft | 428 kts | 332° |
| 2026-05-04 22:53 | 15.03965 | 120.97057 | 20076 ft | 432 kts | 332° |
| 2026-05-04 22:54 | 15.06650 | 120.95619 | 20798 ft | 436 kts | 332° |
| 2026-05-04 22:54 | 15.09362 | 120.94167 | 21497 ft | 440 kts | 332° |
| 2026-05-04 22:54 | 15.12102 | 120.92699 | 22174 ft | 445 kts | 332° |
| 2026-05-04 22:54 | 15.14872 | 120.91215 | 22825 ft | 450 kts | 332° |
| 2026-05-04 22:55 | 15.17728 | 120.89832 | 23466 ft | 456 kts | 338° |
| 2026-05-04 22:55 | 15.20760 | 120.88817 | 24005 ft | 461 kts | 345° |
| 2026-05-04 22:55 | 15.23910 | 120.88135 | 24569 ft | 465 kts | 351° |
| 2026-05-04 22:55 | 15.27133 | 120.87704 | 25141 ft | 468 kts | 352° |
| 2026-05-04 22:56 | 15.30373 | 120.87296 | 25693 ft | 471 kts | 352° |
| 2026-05-04 22:56 | 15.33639 | 120.86889 | 26216 ft | 475 kts | 352° |
| 2026-05-04 22:56 | 15.36937 | 120.86474 | 26732 ft | 479 kts | 352° |
| 2026-05-04 22:56 | 15.40254 | 120.86048 | 27274 ft | 482 kts | 352° |
| 2026-05-04 22:57 | 15.43596 | 120.85612 | 27794 ft | 485 kts | 351° |
| 2026-05-04 22:57 | 15.46963 | 120.85168 | 28310 ft | 489 kts | 351° |
| 2026-05-04 22:57 | 15.50348 | 120.84718 | 28807 ft | 492 kts | 351° |
| 2026-05-04 22:57 | 15.53719 | 120.84269 | 29281 ft | 496 kts | 351° |
| 2026-05-04 22:58 | 15.57156 | 120.83823 | 29751 ft | 499 kts | 351° |
| 2026-05-04 22:58 | 15.60620 | 120.83381 | 30147 ft | 503 kts | 351° |
| 2026-05-04 22:58 | 15.64110 | 120.82934 | 30517 ft | 506 kts | 351° |
| 2026-05-04 22:58 | 15.67613 | 120.82478 | 30893 ft | 508 kts | 351° |
| 2026-05-04 22:59 | 15.71118 | 120.82017 | 31329 ft | 508 kts | 351° |
| 2026-05-04 22:59 | 15.74617 | 120.81553 | 31867 ft | 505 kts | 350° |
| 2026-05-04 22:59 | 15.78093 | 120.81089 | 32440 ft | 502 kts | 350° |
| 2026-05-04 22:59 | 15.81552 | 120.80626 | 32980 ft | 500 kts | 350° |
| 2026-05-04 23:00 | 15.84997 | 120.80164 | 33500 ft | 499 kts | 349° |
| 2026-05-04 23:00 | 15.88440 | 120.79703 | 33998 ft | 498 kts | 349° |
| 2026-05-04 23:00 | 15.91873 | 120.79243 | 34446 ft | 496 kts | 349° |
| 2026-05-04 23:00 | 15.95293 | 120.78785 | 34920 ft | 494 kts | 349° |
| 2026-05-04 23:01 | 15.98692 | 120.78330 | 35418 ft | 491 kts | 349° |
| 2026-05-04 23:01 | 16.02080 | 120.77876 | 35892 ft | 489 kts | 349° |
| 2026-05-04 23:01 | 16.05444 | 120.77426 | 36332 ft | 487 kts | 349° |
| 2026-05-04 23:01 | 16.08755 | 120.76982 | 36745 ft | 485 kts | 349° |
| 2026-05-04 23:02 | 16.12107 | 120.76532 | 37005 ft | 488 kts | 349° |
| 2026-05-04 23:02 | 16.15486 | 120.76077 | 36973 ft | 490 kts | 349° |
| 2026-05-04 23:02 | 16.22222 | 120.75174 | 36956 ft | 484 kts | 349° |
| 2026-05-04 23:03 | 16.28884 | 120.74280 | 36982 ft | 483 kts | 349° |
| 2026-05-04 23:03 | 16.35564 | 120.73380 | 36997 ft | 485 kts | 349° |
| 2026-05-04 23:04 | 16.42255 | 120.72479 | 37000 ft | 485 kts | 349° |
| 2026-05-04 23:04 | 16.48964 | 120.71577 | 37007 ft | 486 kts | 349° |
| 2026-05-04 23:05 | 16.55672 | 120.70675 | 37006 ft | 486 kts | 349° |
| 2026-05-04 23:05 | 16.62382 | 120.69770 | 37038 ft | 486 kts | 349° |
| 2026-05-04 23:06 | 16.69073 | 120.68863 | 37014 ft | 488 kts | 349° |
| 2026-05-04 23:06 | 16.75790 | 120.67962 | 37008 ft | 485 kts | 349° |
| 2026-05-04 23:07 | 16.82490 | 120.67059 | 37008 ft | 484 kts | 349° |
| 2026-05-04 23:07 | 16.89162 | 120.66157 | 37000 ft | 482 kts | 349° |
| 2026-05-04 23:08 | 16.95783 | 120.65260 | 37004 ft | 482 kts | 348° |
| 2026-05-04 23:08 | 17.02428 | 120.64360 | 37001 ft | 482 kts | 348° |
| 2026-05-04 23:09 | 17.09089 | 120.63458 | 36988 ft | 483 kts | 349° |
| 2026-05-04 23:09 | 17.15774 | 120.62552 | 36959 ft | 483 kts | 348° |
| 2026-05-04 23:10 | 17.22409 | 120.61652 | 36943 ft | 483 kts | 348° |
| 2026-05-04 23:10 | 17.29075 | 120.60747 | 36944 ft | 483 kts | 348° |
| 2026-05-04 23:11 | 17.35744 | 120.59842 | 36929 ft | 483 kts | 348° |
| 2026-05-04 23:11 | 17.42408 | 120.58936 | 36931 ft | 482 kts | 348° |
| 2026-05-04 23:12 | 17.49070 | 120.58029 | 36942 ft | 482 kts | 348° |
| 2026-05-04 23:12 | 17.55727 | 120.57123 | 36939 ft | 483 kts | 348° |
| 2026-05-04 23:13 | 17.62397 | 120.56214 | 36927 ft | 483 kts | 348° |
| 2026-05-04 23:13 | 17.69025 | 120.55311 | 36925 ft | 483 kts | 348° |
| 2026-05-04 23:14 | 17.75698 | 120.54400 | 36921 ft | 483 kts | 348° |
| 2026-05-04 23:14 | 17.82374 | 120.53489 | 36924 ft | 483 kts | 348° |
| 2026-05-04 23:15 | 17.89063 | 120.52574 | 36916 ft | 484 kts | 348° |
| 2026-05-04 23:15 | 17.95699 | 120.51667 | 36914 ft | 483 kts | 348° |
| 2026-05-04 23:16 | 18.02465 | 120.51111 | 36913 ft | 488 kts | 356° |
| 2026-05-04 23:16 | 18.09221 | 120.51775 | 36912 ft | 492 kts | 3° |
| 2026-05-04 23:17 | 18.16007 | 120.52681 | 36918 ft | 491 kts | 2° |
| 2026-05-04 23:17 | 18.22812 | 120.53383 | 36913 ft | 490 kts | 360° |
| 2026-05-04 23:18 | 18.29622 | 120.53878 | 36912 ft | 490 kts | 359° |
| 2026-05-04 23:18 | 18.36430 | 120.54381 | 36912 ft | 490 kts | 360° |
| 2026-05-04 23:19 | 18.43203 | 120.54916 | 36926 ft | 491 kts | 359° |
| 2026-05-04 23:19 | 18.50028 | 120.55465 | 36913 ft | 492 kts | 359° |
| 2026-05-04 23:20 | 18.56850 | 120.56014 | 36918 ft | 492 kts | 359° |
| 2026-05-04 23:20 | 18.63684 | 120.56562 | 36918 ft | 492 kts | 359° |
| 2026-05-04 23:21 | 18.70516 | 120.57111 | 36926 ft | 492 kts | 359° |
| 2026-05-04 23:21 | 18.77350 | 120.57667 | 36927 ft | 492 kts | 359° |
| 2026-05-04 23:22 | 18.84142 | 120.58221 | 36923 ft | 492 kts | 359° |
| 2026-05-04 23:22 | 18.90965 | 120.58778 | 36933 ft | 492 kts | 359° |
| 2026-05-04 23:23 | 18.97786 | 120.59335 | 36944 ft | 492 kts | 359° |
| 2026-05-04 23:23 | 19.04607 | 120.59892 | 36948 ft | 491 kts | 359° |
| 2026-05-04 23:24 | 19.11429 | 120.60448 | 36940 ft | 491 kts | 359° |
| 2026-05-04 23:24 | 19.18245 | 120.60983 | 36943 ft | 490 kts | 359° |
| 2026-05-04 23:25 | 19.25054 | 120.61514 | 36948 ft | 490 kts | 359° |
| 2026-05-04 23:25 | 19.31856 | 120.62048 | 36951 ft | 490 kts | 359° |
| 2026-05-04 23:26 | 19.38662 | 120.62584 | 36955 ft | 490 kts | 359° |
| 2026-05-04 23:26 | 19.45463 | 120.63124 | 36957 ft | 490 kts | 359° |
| 2026-05-04 23:27 | 19.52223 | 120.63674 | 36958 ft | 490 kts | 359° |
| 2026-05-04 23:27 | 19.59025 | 120.64230 | 36982 ft | 490 kts | 359° |
| 2026-05-04 23:28 | 19.65832 | 120.64785 | 36966 ft | 491 kts | 359° |
| 2026-05-04 23:28 | 19.72650 | 120.65340 | 36967 ft | 491 kts | 359° |
| 2026-05-04 23:29 | 19.79462 | 120.65895 | 36964 ft | 491 kts | 359° |
| 2026-05-04 23:29 | 19.85123 | 120.66357 | 36969 ft | 491 kts | 359° |
| 2026-05-04 23:30 | 19.93045 | 120.67003 | 36974 ft | 491 kts | 359° |
| 2026-05-04 23:30 | 19.99855 | 120.67560 | 36972 ft | 491 kts | 359° |
| 2026-05-04 23:31 | 20.05520 | 120.68023 | 36976 ft | 491 kts | 359° |
| 2026-05-04 23:31 | 20.12332 | 120.68581 | 36975 ft | 490 kts | 359° |
| 2026-05-04 23:32 | 20.19134 | 120.69140 | 36992 ft | 491 kts | 359° |
| 2026-05-04 23:32 | 20.25944 | 120.69697 | 36981 ft | 491 kts | 359° |
| 2026-05-04 23:33 | 20.32755 | 120.70255 | 36981 ft | 491 kts | 359° |
| 2026-05-04 23:33 | 20.39562 | 120.70814 | 36980 ft | 490 kts | 359° |
| 2026-05-04 23:34 | 20.46369 | 120.71374 | 36992 ft | 490 kts | 359° |
| 2026-05-04 23:34 | 20.53186 | 120.71934 | 36989 ft | 491 kts | 359° |
| 2026-05-04 23:35 | 20.59953 | 120.72491 | 36982 ft | 491 kts | 359° |
| 2026-05-04 23:35 | 20.66766 | 120.73053 | 36986 ft | 491 kts | 359° |
| 2026-05-04 23:36 | 20.73569 | 120.73614 | 37007 ft | 490 kts | 359° |
| 2026-05-04 23:36 | 20.80382 | 120.74177 | 36994 ft | 491 kts | 359° |
| 2026-05-04 23:37 | 20.87185 | 120.74739 | 36991 ft | 490 kts | 359° |
| 2026-05-04 23:37 | 20.93991 | 120.75302 | 36994 ft | 490 kts | 359° |
| 2026-05-04 23:38 | 21.00742 | 120.75313 | 37014 ft | 481 kts | 349° |
| 2026-05-04 23:38 | 21.07262 | 120.74060 | 37003 ft | 474 kts | 341° |
| 2026-05-04 23:39 | 21.13675 | 120.72368 | 36995 ft | 474 kts | 340° |
| 2026-05-04 23:39 | 21.20076 | 120.70693 | 37001 ft | 474 kts | 341° |
| 2026-05-04 23:40 | 21.26462 | 120.69055 | 37001 ft | 474 kts | 341° |
| 2026-05-04 23:40 | 21.32890 | 120.67415 | 37013 ft | 474 kts | 341° |
| 2026-05-04 23:41 | 21.39315 | 120.65774 | 37006 ft | 474 kts | 341° |
| 2026-05-04 23:41 | 21.45731 | 120.64132 | 37014 ft | 473 kts | 341° |
| 2026-05-04 23:42 | 21.52134 | 120.62492 | 37014 ft | 473 kts | 341° |
| 2026-05-04 23:42 | 21.58513 | 120.60858 | 37012 ft | 473 kts | 341° |
| 2026-05-04 23:43 | 21.64911 | 120.59225 | 37020 ft | 473 kts | 341° |
| 2026-05-04 23:43 | 21.71320 | 120.57587 | 37015 ft | 473 kts | 341° |
| 2026-05-04 23:44 | 21.77727 | 120.55948 | 37017 ft | 472 kts | 341° |
| 2026-05-04 23:44 | 21.84117 | 120.54304 | 37021 ft | 472 kts | 341° |
| 2026-05-04 23:45 | 21.90508 | 120.52652 | 37040 ft | 472 kts | 340° |
| 2026-05-04 23:45 | 21.96863 | 120.51007 | 37026 ft | 472 kts | 340° |
| 2026-05-04 23:46 | 22.03253 | 120.49352 | 37019 ft | 472 kts | 340° |
| 2026-05-04 23:46 | 22.09631 | 120.47700 | 37020 ft | 471 kts | 340° |
| 2026-05-04 23:47 | 22.16001 | 120.46048 | 37019 ft | 471 kts | 340° |
| 2026-05-04 23:47 | 22.22378 | 120.44393 | 37019 ft | 471 kts | 340° |
| 2026-05-04 23:48 | 22.28745 | 120.42738 | 37017 ft | 471 kts | 340° |
| 2026-05-04 23:48 | 22.35123 | 120.41079 | 37016 ft | 471 kts | 340° |
| 2026-05-04 23:49 | 22.41490 | 120.39422 | 37021 ft | 471 kts | 340° |
| 2026-05-04 23:49 | 22.47827 | 120.37771 | 37008 ft | 471 kts | 340° |
| 2026-05-04 23:50 | 22.54203 | 120.36108 | 37001 ft | 471 kts | 340° |
| 2026-05-04 23:50 | 22.60589 | 120.34441 | 36994 ft | 472 kts | 340° |
| 2026-05-04 23:51 | 22.66978 | 120.32771 | 36991 ft | 472 kts | 340° |
| 2026-05-04 23:51 | 22.73373 | 120.31098 | 37008 ft | 473 kts | 340° |
| 2026-05-04 23:52 | 22.79770 | 120.29423 | 37065 ft | 472 kts | 340° |
| 2026-05-04 23:52 | 22.86134 | 120.27760 | 37050 ft | 472 kts | 340° |
| 2026-05-04 23:53 | 22.92530 | 120.26091 | 37051 ft | 471 kts | 340° |
| 2026-05-04 23:53 | 22.98911 | 120.24423 | 37051 ft | 472 kts | 340° |
| 2026-05-04 23:54 | 23.05299 | 120.22750 | 37050 ft | 471 kts | 340° |
| 2026-05-04 23:54 | 23.11682 | 120.21080 | 37062 ft | 471 kts | 340° |
| 2026-05-04 23:55 | 23.14909 | 120.20561 | 36846 ft | 485 kts | 352° |
| 2026-05-04 23:55 | 23.18344 | 120.20793 | 36171 ft | 497 kts | 0° |
| 2026-05-04 23:55 | 23.25146 | 120.21825 | 35069 ft | 489 kts | 1° |
| 2026-05-04 23:56 | 23.28505 | 120.22329 | 34543 ft | 485 kts | 360° |
| 2026-05-04 23:56 | 23.31838 | 120.22786 | 34011 ft | 481 kts | 359° |
| 2026-05-04 23:56 | 23.35146 | 120.23205 | 33437 ft | 477 kts | 358° |
| 2026-05-04 23:56 | 23.38433 | 120.23601 | 32943 ft | 473 kts | 358° |
| 2026-05-04 23:57 | 23.41693 | 120.23986 | 32408 ft | 470 kts | 357° |
| 2026-05-04 23:57 | 23.44939 | 120.24366 | 31912 ft | 468 kts | 358° |
| 2026-05-04 23:57 | 23.48176 | 120.24748 | 31389 ft | 466 kts | 358° |
| 2026-05-04 23:57 | 23.51393 | 120.25132 | 30894 ft | 464 kts | 358° |
| 2026-05-04 23:58 | 23.54601 | 120.25515 | 30398 ft | 462 kts | 358° |
| 2026-05-04 23:58 | 23.57795 | 120.25898 | 29847 ft | 460 kts | 358° |
| 2026-05-04 23:58 | 23.60969 | 120.26279 | 29280 ft | 458 kts | 358° |
| 2026-05-04 23:58 | 23.64087 | 120.26654 | 28789 ft | 456 kts | 358° |
| 2026-05-04 23:59 | 23.67238 | 120.27032 | 28254 ft | 453 kts | 358° |
| 2026-05-04 23:59 | 23.70370 | 120.27421 | 27735 ft | 452 kts | 0° |
| 2026-05-04 23:59 | 23.73469 | 120.28156 | 27235 ft | 458 kts | 8° |
| 2026-05-04 23:59 | 23.76518 | 120.29191 | 26747 ft | 458 kts | 11° |
| 2026-05-05 00:00 | 23.79530 | 120.30314 | 26250 ft | 457 kts | 12° |
| 2026-05-05 00:00 | 23.80545 | 120.30699 | 26079 ft | 457 kts | 12° |
| 2026-05-05 00:00 | 23.85525 | 120.32560 | 25253 ft | 454 kts | 12° |
| 2026-05-05 00:00 | 23.88519 | 120.33642 | 24751 ft | 453 kts | 12° |
| 2026-05-05 00:01 | 23.91511 | 120.34701 | 24261 ft | 451 kts | 11° |
| 2026-05-05 00:01 | 23.94498 | 120.35743 | 23752 ft | 450 kts | 12° |
| 2026-05-05 00:01 | 23.97480 | 120.36776 | 23182 ft | 449 kts | 12° |
| 2026-05-05 00:01 | 24.00452 | 120.37805 | 22650 ft | 446 kts | 12° |
| 2026-05-05 00:02 | 24.03401 | 120.38826 | 22141 ft | 442 kts | 12° |
| 2026-05-05 00:02 | 24.06326 | 120.39841 | 21651 ft | 439 kts | 12° |
| 2026-05-05 00:02 | 24.09187 | 120.40833 | 21153 ft | 436 kts | 12° |
| 2026-05-05 00:02 | 24.12070 | 120.41835 | 20677 ft | 432 kts | 12° |
| 2026-05-05 00:03 | 24.14933 | 120.42829 | 20211 ft | 431 kts | 12° |
| 2026-05-05 00:03 | 24.17785 | 120.43821 | 19734 ft | 428 kts | 13° |
| 2026-05-05 00:03 | 24.20618 | 120.44807 | 19239 ft | 426 kts | 13° |
| 2026-05-05 00:03 | 24.23434 | 120.45788 | 18744 ft | 423 kts | 13° |
| 2026-05-05 00:04 | 24.26238 | 120.46764 | 18244 ft | 421 kts | 13° |
| 2026-05-05 00:04 | 24.29028 | 120.47737 | 17704 ft | 418 kts | 13° |
| 2026-05-05 00:04 | 24.31795 | 120.48701 | 17189 ft | 415 kts | 13° |
| 2026-05-05 00:04 | 24.34532 | 120.49657 | 16715 ft | 411 kts | 13° |
| 2026-05-05 00:05 | 24.37248 | 120.50605 | 16234 ft | 408 kts | 13° |
| 2026-05-05 00:05 | 24.39911 | 120.51534 | 15766 ft | 405 kts | 13° |
| 2026-05-05 00:05 | 24.42588 | 120.52469 | 15305 ft | 403 kts | 13° |
| 2026-05-05 00:05 | 24.45252 | 120.53399 | 14832 ft | 401 kts | 13° |
| 2026-05-05 00:06 | 24.47904 | 120.54326 | 14339 ft | 400 kts | 13° |
| 2026-05-05 00:06 | 24.50554 | 120.55252 | 13869 ft | 398 kts | 13° |
| 2026-05-05 00:06 | 24.53196 | 120.56175 | 13320 ft | 397 kts | 14° |
| 2026-05-05 00:06 | 24.55821 | 120.57095 | 12843 ft | 394 kts | 14° |
| 2026-05-05 00:07 | 24.58431 | 120.58010 | 12366 ft | 391 kts | 14° |
| 2026-05-05 00:07 | 24.61021 | 120.58918 | 11906 ft | 389 kts | 14° |
| 2026-05-05 00:07 | 24.63557 | 120.59807 | 11440 ft | 386 kts | 14° |
| 2026-05-05 00:07 | 24.66118 | 120.60710 | 10999 ft | 385 kts | 15° |
| 2026-05-05 00:08 | 24.68515 | 120.62020 | 10526 ft | 389 kts | 36° |
| 2026-05-05 00:08 | 24.70483 | 120.64016 | 10361 ft | 379 kts | 41° |
| 2026-05-05 00:08 | 24.72378 | 120.65974 | 10194 ft | 369 kts | 40° |
| 2026-05-05 00:08 | 24.74254 | 120.67856 | 10017 ft | 359 kts | 40° |
| 2026-05-05 00:09 | 24.76009 | 120.69598 | 9727 ft | 320 kts | 39° |
| 2026-05-05 00:09 | 24.77615 | 120.71183 | 9329 ft | 308 kts | 39° |
| 2026-05-05 00:09 | 24.79220 | 120.72759 | 8964 ft | 310 kts | 39° |
| 2026-05-05 00:09 | 24.80837 | 120.74346 | 8612 ft | 311 kts | 40° |
| 2026-05-05 00:10 | 24.82423 | 120.75907 | 8218 ft | 295 kts | 40° |
| 2026-05-05 00:10 | 24.83950 | 120.77410 | 7942 ft | 298 kts | 40° |
| 2026-05-05 00:10 | 24.85513 | 120.78948 | 7616 ft | 304 kts | 40° |
| 2026-05-05 00:10 | 24.87092 | 120.80503 | 7267 ft | 305 kts | 40° |
| 2026-05-05 00:11 | 24.88675 | 120.82064 | 6940 ft | 305 kts | 41° |
| 2026-05-05 00:11 | 24.90245 | 120.83616 | 6601 ft | 298 kts | 43° |
| 2026-05-05 00:11 | 24.91392 | 120.85365 | 6197 ft | 270 kts | 71° |
| 2026-05-05 00:11 | 24.91800 | 120.87384 | 6067 ft | 274 kts | 89° |
| 2026-05-05 00:12 | 24.91795 | 120.89447 | 5845 ft | 273 kts | 96° |
| 2026-05-05 00:12 | 24.91665 | 120.91523 | 5644 ft | 268 kts | 97° |
| 2026-05-05 00:12 | 24.91531 | 120.93562 | 5352 ft | 265 kts | 97° |
| 2026-05-05 00:12 | 24.91411 | 120.95578 | 5066 ft | 262 kts | 96° |
| 2026-05-05 00:13 | 24.91303 | 120.97573 | 4775 ft | 259 kts | 97° |
| 2026-05-05 00:13 | 24.91199 | 120.99545 | 4448 ft | 257 kts | 96° |
| 2026-05-05 00:13 | 24.91098 | 121.01517 | 4076 ft | 258 kts | 95° |
| 2026-05-05 00:13 | 24.91342 | 121.03460 | 3725 ft | 259 kts | 66° |
| 2026-05-05 00:14 | 24.92391 | 121.05017 | 3577 ft | 247 kts | 47° |
| 2026-05-05 00:14 | 24.93499 | 121.06399 | 3503 ft | 233 kts | 49° |
| 2026-05-05 00:14 | 24.94501 | 121.07685 | 3490 ft | 212 kts | 49° |
| 2026-05-05 00:14 | 24.95137 | 121.08495 | 3298 ft | 208 kts | 49° |
| 2026-05-05 00:15 | 24.96371 | 121.10057 | 2947 ft | 199 kts | 48° |
| 2026-05-05 00:15 | 24.97251 | 121.11169 | 2707 ft | 185 kts | 48° |
| 2026-05-05 00:15 | 24.98064 | 121.12198 | 2457 ft | 170 kts | 48° |
| 2026-05-05 00:15 | 24.98794 | 121.13122 | 2254 ft | 150 kts | 48° |
| 2026-05-05 00:16 | 24.99244 | 121.13692 | 2121 ft | 148 kts | 48° |
| 2026-05-05 00:16 | 24.99916 | 121.14543 | 1945 ft | 146 kts | 48° |
| 2026-05-05 00:16 | 25.00579 | 121.15382 | 1752 ft | 144 kts | 48° |
| 2026-05-05 00:16 | 25.01232 | 121.16207 | 1563 ft | 143 kts | 48° |
| 2026-05-05 00:17 | 25.01886 | 121.17036 | 1368 ft | 144 kts | 49° |
| 2026-05-05 00:17 | 25.02538 | 121.17862 | 1182 ft | 143 kts | 48° |
| 2026-05-05 00:17 | 25.03191 | 121.18689 | 997 ft | 142 kts | 49° |
| 2026-05-05 00:17 | 25.03843 | 121.19516 | 818 ft | 142 kts | 49° |
| 2026-05-05 00:18 | 25.04490 | 121.20335 | 639 ft | 141 kts | 49° |
| 2026-05-05 00:18 | 25.05124 | 121.21137 | 460 ft | 137 kts | 49° |
| 2026-05-05 00:18 | 25.05763 | 121.21945 | 238 ft | 139 kts | 50° |
| 2026-05-05 00:18 | 25.06393 | 121.22737 | 105 ft | 137 kts | 50° |
| 2026-05-05 00:19 | 25.06970 | 121.23476 | 102 ft | 107 kts | 49° |
| 2026-05-05 00:19 | 25.07355 | 121.23964 | 99 ft | 63 kts | 49° |
| 2026-05-05 00:19 | 25.07568 | 121.24173 | 101 ft | 21 kts | 23° |
| 2026-05-05 00:19 | 25.07692 | 121.24221 | 103 ft | 16 kts | 8° |
| 2026-05-05 00:20 | 25.07751 | 121.24188 | 107 ft | 8 kts | 288° |
| 2026-05-05 00:20 | 25.07716 | 121.24103 | 106 ft | 17 kts | 230° |
| 2026-05-05 00:20 | 25.07631 | 121.23996 | 106 ft | 18 kts | 229° |
| 2026-05-05 00:20 | 25.07559 | 121.23905 | 107 ft | 16 kts | 229° |
| 2026-05-05 00:21 | 25.07508 | 121.23833 | 107 ft | 10 kts | 246° |
| 2026-05-05 00:21 | 25.07521 | 121.23765 | 107 ft | 8 kts | 318° |
| 2026-05-05 00:21 | 25.07581 | 121.23711 | 108 ft | 11 kts | 317° |
| 2026-05-05 00:21 | 25.07600 | 121.23655 | 108 ft | 8 kts | 270° |
| 2026-05-05 00:22 | 25.07565 | 121.23592 | 108 ft | 14 kts | 230° |
| 2026-05-05 00:22 | 25.07516 | 121.23527 | 109 ft | 12 kts | 230° |
| 2026-05-05 00:22 | 25.07472 | 121.23470 | 108 ft | 10 kts | 229° |
| 2026-05-05 00:22 | 25.07425 | 121.23411 | 108 ft | 10 kts | 228° |
| 2026-05-05 00:23 | 25.07394 | 121.23354 | 107 ft | 6 kts | 266° |
| 2026-05-05 00:23 | 25.07407 | 121.23328 | 109 ft | 4 kts | 310° |
| 2026-05-05 00:23 | 25.07425 | 121.23305 | 107 ft | 4 kts | 314° |
| 2026-05-05 00:23 | 25.07445 | 121.23284 | 107 ft | 4 kts | 317° |
| 2026-05-05 00:24 | 25.07463 | 121.23266 | 106 ft | 3 kts | 319° |
| 2026-05-05 00:24 | 25.07472 | 121.23258 | 109 ft | 1 kts | 319° |
| 2026-05-05 00:24 | 25.07474 | 121.23256 | 106 ft | 0 kts | 319° |